Time;durP1;ratioP1;P1;durP2;ratioP2;P2;SDS_P1;SDS_P2;PMS_P1;PMS_P2;Temp;Humidity;BMP_temperature;BMP_pressure;BME280_temperature;BME280_humidity;BME280_pressure;Samples;Min_cycle;Max_cycle;Signal;HPM_P1;HPM_P2
2022/02/17 00:01:45;;;;;;;;;0.00;0.00;;;;;14.60;68.88;99951.94;5078902;28;45285;-59
2022/02/17 00:04:11;;;;;;;;;0.00;0.00;;;;;14.61;68.67;99951.78;5078861;28;45487;-61
2022/02/17 00:06:36;;;;;;;;;0.00;0.00;;;;;14.61;68.98;99948.28;5077039;28;73139;-61
2022/02/17 00:09:02;;;;;;;;;0.00;0.00;;;;;14.62;68.90;99945.50;5077757;28;68710;-61
2022/02/17 00:11:27;;;;;;;;;0.00;0.00;;;;;14.64;68.82;99950.59;5078813;28;45390;-61
2022/02/17 00:13:52;;;;;;;;;0.00;0.00;;;;;14.63;69.01;99944.50;5077905;28;62730;-61
2022/02/17 00:16:18;;;;;;;;;0.00;0.00;;;;;14.64;69.04;99940.00;5077374;28;73169;-61
2022/02/17 00:18:43;;;;;;;;;0.00;0.00;;;;;14.64;69.04;99945.31;5078456;28;45343;-61
2022/02/17 00:21:08;;;;;;;;;0.50;0.00;;;;;14.66;68.88;99938.00;5077832;28;55009;-61
2022/02/17 00:23:34;;;;;;;;;0.00;0.00;;;;;14.67;68.64;99955.53;5077617;28;64374;-61
2022/02/17 00:25:59;;;;;;;;;0.00;0.00;;;;;14.68;68.81;99954.53;5078382;28;46110;-62
2022/02/17 00:28:25;;;;;;;;;0.00;0.00;;;;;14.68;69.34;99955.38;5078325;28;45168;-61
2022/02/17 00:30:50;;;;;;;;;0.50;0.00;;;;;14.67;69.52;99972.22;5078015;28;45711;-61
2022/02/17 00:33:16;;;;;;;;;0.00;0.00;;;;;14.67;69.61;99971.38;5077428;28;67289;-61
2022/02/17 00:35:41;;;;;;;;;0.00;0.00;;;;;14.67;69.98;99981.97;5077168;28;70973;-61
2022/02/17 00:38:06;;;;;;;;;0.00;0.00;;;;;14.66;69.78;99973.22;5077173;28;69823;-61
2022/02/17 00:40:32;;;;;;;;;0.00;0.00;;;;;14.64;69.76;99967.28;5077125;28;69290;-61
2022/02/17 00:42:57;;;;;;;;;0.00;0.00;;;;;14.64;69.65;99977.88;5078059;28;45162;-61
2022/02/17 00:45:23;;;;;;;;;0.00;0.00;;;;;14.62;69.80;99990.44;5077158;28;67659;-61
2022/02/17 00:47:49;;;;;;;;;0.00;0.00;;;;;14.60;69.95;100016.22;5077698;28;45291;-61
2022/02/17 00:50:15;;;;;;;;;0.00;0.00;;;;;14.60;70.33;100016.22;5078163;28;45335;-60
2022/02/17 00:52:40;;;;;;;;;0.00;0.00;;;;;14.60;70.20;100020.69;5077054;28;67503;-61
2022/02/17 00:55:06;;;;;;;;;0.00;0.00;;;;;14.56;70.53;100038.72;5077103;28;64839;-61
2022/02/17 00:57:31;;;;;;;;;0.00;0.00;;;;;14.55;70.78;100037.06;5077133;28;45355;-61
2022/02/17 00:59:57;;;;;;;;;0.00;0.00;;;;;14.54;71.04;100022.22;5077272;28;55703;-61
2022/02/17 01:02:22;;;;;;;;;0.00;0.00;;;;;14.52;70.98;100026.84;5077753;28;45469;-61
2022/02/17 01:04:47;;;;;;;;;0.00;0.00;;;;;14.52;70.83;100042.72;5076817;28;70451;-61
2022/02/17 01:07:13;;;;;;;;;0.00;0.00;;;;;14.49;71.07;100028.03;5076623;28;73179;-60
2022/02/17 01:09:39;;;;;;;;;0.00;0.00;;;;;14.48;70.78;100038.75;5077817;28;45387;-61
2022/02/17 01:12:04;;;;;;;;;0.00;0.00;;;;;14.48;70.71;100050.19;5077625;28;45435;-61
2022/02/17 01:14:30;;;;;;;;;0.00;0.00;;;;;14.47;70.87;100045.03;5076410;28;45752;-61
2022/02/17 01:16:55;;;;;;;;;0.00;0.00;;;;;14.47;70.58;100056.47;5076423;28;45240;-61
2022/02/17 01:19:21;;;;;;;;;0.00;0.00;;;;;14.46;69.90;100048.69;5076222;28;51700;-60
2022/02/17 01:21:46;;;;;;;;;0.00;0.00;;;;;14.45;70.33;100042.59;5077014;28;52999;-60
2022/02/17 01:24:11;;;;;;;;;0.50;0.00;;;;;14.44;70.11;100043.59;5077194;28;50430;-60
2022/02/17 01:26:37;;;;;;;;;0.00;0.00;;;;;14.45;70.25;100041.75;5077256;28;45258;-60
2022/02/17 01:29:02;;;;;;;;;0.00;0.00;;;;;14.44;69.81;100040.09;5076726;28;60632;-60
2022/02/17 01:31:28;;;;;;;;;0.25;0.00;;;;;14.43;69.04;100034.00;5077018;28;45614;-60
2022/02/17 01:33:53;;;;;;;;;0.00;0.00;;;;;14.43;69.48;100025.25;5077092;28;45351;-60
2022/02/17 01:36:18;;;;;;;;;1.00;0.00;;;;;14.42;69.13;100053.50;5077083;28;45514;-60
2022/02/17 01:38:46;;;;;;;;;1.50;0.00;;;;;14.41;69.31;100057.16;5076341;28;63486;-61
2022/02/17 01:41:12;;;;;;;;;0.00;0.00;;;;;14.40;68.71;100063.44;5077268;28;45387;-61
2022/02/17 01:43:38;;;;;;;;;1.25;0.00;;;;;14.40;68.36;100089.88;5076876;28;45442;-60
2022/02/17 01:46:03;;;;;;;;;0.00;0.00;;;;;14.39;68.00;100099.59;5077165;28;45198;-60
2022/02/17 01:48:29;;;;;;;;;0.00;0.00;;;;;14.38;68.06;100095.31;5077162;28;45196;-60
2022/02/17 01:50:55;;;;;;;;;2.75;0.50;;;;;14.37;67.66;100095.50;5075991;28;45176;-60
2022/02/17 01:53:20;;;;;;;;;2.00;0.50;;;;;14.36;66.47;100102.56;5076874;28;45995;-60
2022/02/17 01:55:48;;;;;;;;;2.00;0.00;;;;;14.35;65.77;100085.06;5076000;28;67136;-60
2022/02/17 01:58:14;;;;;;;;;0.00;0.00;;;;;14.33;65.35;100092.34;5076999;28;45378;-59
2022/02/17 02:00:39;;;;;;;;;0.00;0.00;;;;;14.32;64.85;100103.91;5076864;28;45580;-60
2022/02/17 02:03:06;;;;;;;;;0.00;0.00;;;;;14.31;64.44;100094.34;5075987;28;66479;-60
2022/02/17 02:05:31;;;;;;;;;3.00;1.00;;;;;14.29;64.02;100091.06;5057542;28;45949;-61
2022/02/17 02:07:56;;;;;;;;;6.00;1.00;;;;;14.29;63.53;100109.56;5076613;28;45430;-60
2022/02/17 02:10:22;;;;;;;;;2.50;1.50;;;;;14.29;62.95;100127.22;5075984;28;60871;-61
2022/02/17 02:12:47;;;;;;;;;0.50;0.50;;;;;14.25;62.31;100124.94;5057425;28;68288;-60
2022/02/17 02:15:14;;;;;;;;;2.75;0.25;;;;;14.25;62.62;100121.47;5075663;28;67302;-60
2022/02/17 02:17:40;;;;;;;;;0.00;0.00;;;;;14.24;62.41;100127.75;5075002;28;45296;-60
2022/02/17 02:20:07;;;;;;;;;2.25;0.50;;;;;14.23;62.27;100142.78;5076553;28;45219;-60
2022/02/17 02:22:33;;;;;;;;;0.50;0.00;;;;;14.23;62.48;100128.75;5076426;28;47102;-61
2022/02/17 02:24:59;;;;;;;;;3.50;1.25;;;;;14.22;61.66;100138.47;5058426;28;45781;-60
2022/02/17 02:27:24;;;;;;;;;2.75;0.50;;;;;14.20;61.41;100114.03;5076526;28;45329;-61
2022/02/17 02:29:50;;;;;;;;;1.00;0.00;;;;;14.19;61.99;100120.31;5075996;28;45386;-61
2022/02/17 02:32:15;;;;;;;;;2.75;1.00;;;;;14.17;61.38;100113.56;5076395;28;45938;-61
2022/02/17 02:34:40;;;;;;;;;3.25;2.00;;;;;14.13;60.57;100117.53;5075896;28;54673;-60
2022/02/17 02:37:06;;;;;;;;;2.25;1.00;;;;;14.08;60.65;100116.22;5076004;28;50450;-60
2022/02/17 02:39:32;;;;;;;;;1.25;1.00;;;;;14.07;59.83;100122.50;5075477;28;60863;-61
2022/02/17 02:41:57;;;;;;;;;4.00;1.75;;;;;14.05;59.56;100118.38;5076045;28;52315;-60
2022/02/17 02:44:23;;;;;;;;;2.75;1.00;;;;;14.01;59.05;100143.50;5075653;28;61143;-61
2022/02/17 02:46:48;;;;;;;;;6.50;2.00;;;;;13.97;58.45;100124.50;5075876;28;53016;-61
2022/02/17 02:49:14;;;;;;;;;4.00;2.00;;;;;13.95;58.32;100139.69;5075564;28;62033;-61
2022/02/17 02:51:39;;;;;;;;;1.00;1.00;;;;;13.92;58.32;100137.38;5076087;28;45347;-60
2022/02/17 02:54:05;;;;;;;;;3.50;2.00;;;;;13.89;57.95;100148.28;5075298;28;65799;-61
2022/02/17 02:56:30;;;;;;;;;2.75;1.00;;;;;13.86;57.22;100135.41;5075316;28;45246;-61
2022/02/17 02:58:56;;;;;;;;;2.00;1.50;;;;;13.82;57.49;100152.59;5075289;28;65396;-61
2022/02/17 03:01:21;;;;;;;;;2.50;2.00;;;;;13.78;57.46;100134.44;5074916;28;70222;-60
2022/02/17 03:03:49;;;;;;;;;1.50;1.50;;;;;13.79;57.68;100117.59;5075908;28;45216;-61
2022/02/17 03:06:15;;;;;;;;;3.50;0.00;;;;;13.77;57.09;100124.91;5075926;28;45351;-60
2022/02/17 03:08:40;;;;;;;;;1.00;0.00;;;;;13.76;57.21;100133.81;5057982;28;45443;-60
2022/02/17 03:11:06;;;;;;;;;1.50;1.50;;;;;13.76;57.31;100139.09;5075033;28;67623;-60
2022/02/17 03:13:31;;;;;;;;;3.25;1.00;;;;;13.76;56.65;100144.38;5057316;28;54977;-61
2022/02/17 03:15:56;;;;;;;;;5.00;1.00;;;;;13.77;57.36;100177.69;5074963;28;64159;-60
2022/02/17 03:18:22;;;;;;;;;3.00;1.75;;;;;13.77;57.15;100153.09;5075222;28;61413;-61
2022/02/17 03:20:47;;;;;;;;;2.00;1.00;;;;;13.75;57.45;100155.91;5074833;28;67876;-60
2022/02/17 03:23:12;;;;;;;;;3.00;1.00;;;;;13.74;56.70;100148.16;5074867;28;61581;-61
2022/02/17 03:25:38;;;;;;;;;3.00;2.00;;;;;13.72;55.49;100150.97;5075030;28;62179;-61
2022/02/17 03:28:03;;;;;;;;;4.25;1.25;;;;;13.71;56.34;100166.97;5074687;28;70472;-60
2022/02/17 03:30:29;;;;;;;;;3.00;3.00;;;;;13.69;55.90;100161.84;5075294;28;45834;-60
2022/02/17 03:32:54;;;;;;;;;2.00;0.00;;;;;13.68;56.36;100172.56;5073531;28;65353;-60
2022/02/17 03:35:19;;;;;;;;;6.25;1.00;;;;;13.69;56.27;100171.56;5075287;28;48278;-60
2022/02/17 03:37:45;;;;;;;;;6.00;1.25;;;;;13.68;56.75;100189.25;5074731;28;65363;-60
2022/02/17 03:40:11;;;;;;;;;9.50;2.50;;;;;13.72;56.50;100171.25;5074956;28;73797;-60
2022/02/17 03:42:37;;;;;;;;;4.25;1.00;;;;;13.70;56.32;100176.72;5078820;28;45230;-60
2022/02/17 03:45:03;;;;;;;;;3.75;2.00;;;;;13.70;56.43;100199.63;5078935;28;45238;-60
2022/02/17 03:47:28;;;;;;;;;5.50;2.50;;;;;13.71;56.67;100194.19;5079045;28;45323;-61
2022/02/17 03:49:53;;;;;;;;;3.75;2.00;;;;;13.71;55.74;100183.63;5077533;28;72880;-60
2022/02/17 03:52:19;;;;;;;;;5.25;2.00;;;;;13.70;55.95;100189.06;5077810;28;70709;-61
2022/02/17 03:54:44;;;;;;;;;4.25;2.00;;;;;13.70;55.57;100202.28;5078906;28;45337;-61
2022/02/17 03:57:09;;;;;;;;;5.75;2.00;;;;;13.63;54.92;100196.84;5076637;28;59095;-61
2022/02/17 03:59:35;;;;;;;;;5.00;2.00;;;;;13.64;54.61;100211.69;5078360;28;46077;-60
2022/02/17 04:02:01;;;;;;;;;3.00;3.00;;;;;13.58;53.87;100212.34;5077547;28;64404;-60
2022/02/17 04:04:27;;;;;;;;;4.00;2.00;;;;;13.57;53.60;100218.59;5078701;28;45395;-60
2022/02/17 04:06:52;;;;;;;;;2.50;2.00;;;;;13.53;53.33;100219.91;5078064;28;58376;-60
2022/02/17 04:09:17;;;;;;;;;5.75;2.00;;;;;13.48;53.28;100231.78;5077503;28;74711;-61
2022/02/17 04:11:43;;;;;;;;;5.00;3.00;;;;;13.44;53.08;100235.75;5077792;28;59815;-60
2022/02/17 04:14:08;;;;;;;;;5.50;3.75;;;;;13.41;53.47;100237.84;5077663;28;68305;-60
2022/02/17 04:16:34;;;;;;;;;3.00;2.25;;;;;13.36;52.97;100249.72;5059314;28;68800;-61
2022/02/17 04:18:59;;;;;;;;;5.75;3.50;;;;;13.34;52.82;100264.88;5058732;28;65221;-60
2022/02/17 04:21:24;;;;;;;;;4.00;4.00;;;;;13.31;52.92;100267.84;5078242;28;45397;-60
2022/02/17 04:23:50;;;;;;;;;5.75;3.00;;;;;13.29;53.67;100269.81;5078360;28;45183;-60
2022/02/17 04:26:17;;;;;;;;;6.75;3.75;;;;;13.27;53.56;100261.22;5078272;28;45517;-60
2022/02/17 04:28:43;;;;;;;;;5.75;3.00;;;;;13.27;54.02;100258.59;5078165;28;45365;-60
2022/02/17 04:31:08;;;;;;;;;10.25;1.50;;;;;13.28;54.00;100262.03;5077821;28;45322;-60
2022/02/17 04:33:35;;;;;;;;;8.50;3.00;;;;;13.25;54.22;100259.75;5078002;28;45307;-60
2022/02/17 04:36:01;;;;;;;;;9.00;4.00;;;;;13.23;53.84;100275.72;5078129;28;45453;-61
2022/02/17 04:38:27;;;;;;;;;6.75;2.75;;;;;13.20;54.28;100300.63;5077976;28;46100;-60
2022/02/17 04:43:36;;;;;;;;;6.75;2.50;;;;;13.18;54.56;100297.34;5078232;28;45430;-61
2022/02/17 04:46:01;;;;;;;;;8.25;4.00;;;;;13.13;53.75;100307.53;5077167;28;66395;-61
2022/02/17 04:48:27;;;;;;;;;3.75;1.00;;;;;13.10;54.24;100302.56;5077139;28;66523;-60
2022/02/17 04:50:52;;;;;;;;;4.50;3.00;;;;;13.09;54.74;100323.81;5077802;28;45324;-60
2022/02/17 04:53:17;;;;;;;;;7.00;4.25;;;;;13.07;54.59;100331.91;5059314;28;57808;-61
2022/02/17 04:55:43;;;;;;;;;7.25;3.00;;;;;13.07;54.49;100331.91;5077828;28;45514;-59
2022/02/17 04:58:08;;;;;;;;;4.25;4.00;;;;;13.06;54.36;100354.78;5077621;28;46465;-61
2022/02/17 05:00:34;;;;;;;;;6.00;3.00;;;;;13.04;53.87;100356.75;5077339;28;45395;-61
2022/02/17 05:02:59;;;;;;;;;8.00;3.75;;;;;13.02;54.21;100373.72;5059547;28;45581;-60
2022/02/17 05:05:25;;;;;;;;;6.00;3.75;;;;;12.99;53.66;100384.59;5077066;28;57598;-60
2022/02/17 05:07:50;;;;;;;;;5.00;3.00;;;;;12.96;53.98;100372.56;5076537;28;72903;-60
2022/02/17 05:10:15;;;;;;;;;5.50;3.75;;;;;12.96;53.45;100388.38;5077296;28;48082;-61
2022/02/17 05:12:41;;;;;;;;;4.50;3.00;;;;;12.93;53.24;100391.34;5077066;28;54166;-60
2022/02/17 05:15:07;;;;;;;;;5.50;4.00;;;;;12.89;53.28;100389.97;5076418;28;45494;-60
2022/02/17 05:17:32;;;;;;;;;7.75;3.25;;;;;12.87;53.07;100384.03;5077190;28;45598;-61
2022/02/17 05:19:57;;;;;;;;;6.75;3.00;;;;;12.83;53.09;100396.69;5076282;28;45190;-60
2022/02/17 05:22:23;;;;;;;;;7.50;4.00;;;;;12.80;52.45;100386.44;5076760;28;59607;-60
2022/02/17 05:24:48;;;;;;;;;6.00;4.00;;;;;12.74;52.16;100406.34;5077311;28;45429;-60
2022/02/17 05:27:14;;;;;;;;;5.75;4.00;;;;;12.71;51.96;100416.41;5076284;28;70026;-60
2022/02/17 05:29:39;;;;;;;;;6.75;4.75;;;;;12.67;52.29;100425.59;5076175;28;67785;-60
2022/02/17 05:32:05;;;;;;;;;13.00;4.50;;;;;12.63;52.46;100432.94;5076815;28;45494;-60
2022/02/17 05:34:30;;;;;;;;;7.00;4.00;;;;;12.61;52.65;100422.56;5076747;28;50143;-61
2022/02/17 05:36:55;;;;;;;;;10.75;8.00;;;;;12.60;52.17;100431.47;5076282;28;66114;-60
2022/02/17 05:39:21;;;;;;;;;5.25;3.25;;;;;12.60;51.92;100426.19;5076685;28;49481;-60
2022/02/17 05:41:46;;;;;;;;;9.50;7.75;;;;;12.59;52.38;100424.53;5076184;28;61005;-61
2022/02/17 05:44:12;;;;;;;;;6.50;3.50;;;;;12.55;51.59;100425.81;5076848;28;50119;-60
2022/02/17 05:46:37;;;;;;;;;10.00;4.75;;;;;12.53;51.71;100429.56;5076749;28;46010;-61
2022/02/17 05:49:02;;;;;;;;;13.50;4.75;;;;;12.51;51.31;100421.81;5076017;28;68235;-61
2022/02/17 05:51:28;;;;;;;;;6.00;3.50;;;;;12.46;51.21;100430.16;5076224;28;45487;-60
2022/02/17 05:53:53;;;;;;;;;7.50;5.25;;;;;12.44;50.96;100444.47;5075543;28;45328;-61
2022/02/17 05:56:18;;;;;;;;;9.00;4.25;;;;;12.41;50.72;100434.25;5076686;28;46136;-60
2022/02/17 05:58:44;;;;;;;;;14.00;5.50;;;;;12.38;51.14;100440.66;5075736;28;71526;-61
2022/02/17 06:01:09;;;;;;;;;7.75;4.00;;;;;12.36;50.98;100444.41;5075850;28;62590;-60
2022/02/17 06:03:34;;;;;;;;;6.75;5.00;;;;;12.34;51.18;100443.72;5075455;28;64551;-60
2022/02/17 06:06:00;;;;;;;;;12.50;8.75;;;;;12.32;50.98;100442.06;5075604;28;71164;-60
2022/02/17 06:08:25;;;;;;;;;9.25;5.50;;;;;12.31;51.13;100435.13;5075489;28;73297;-60
2022/02/17 06:10:51;;;;;;;;;15.00;4.00;;;;;12.29;51.50;100450.25;5058406;28;45801;-60
2022/02/17 06:13:16;;;;;;;;;13.75;6.75;;;;;12.29;51.35;100449.44;5076397;28;45578;-61
2022/02/17 06:15:42;;;;;;;;;10.75;5.25;;;;;12.26;51.55;100458.47;5075239;28;46338;-61
2022/02/17 06:18:07;;;;;;;;;10.50;6.00;;;;;12.25;51.31;100456.00;5057562;28;57923;-60
2022/02/17 06:20:32;;;;;;;;;6.00;4.50;;;;;12.22;51.79;100467.63;5075686;28;63732;-60
2022/02/17 06:22:58;;;;;;;;;8.75;5.25;;;;;12.20;51.66;100474.03;5075524;28;63990;-60
2022/02/17 06:25:23;;;;;;;;;13.25;6.25;;;;;12.18;51.47;100466.31;5076088;28;45298;-61
2022/02/17 06:27:49;;;;;;;;;9.75;6.00;;;;;12.17;52.26;100462.03;5075464;28;64221;-60
2022/02/17 06:30:15;;;;;;;;;7.75;4.25;;;;;12.17;52.05;100464.66;5076221;28;45536;-61
2022/02/17 06:32:51;;;;;;;;;15.25;7.50;;;;;12.16;52.29;100469.06;5058261;28;45248;-60
2022/02/17 06:35:20;;;;;;;;;14.25;8.00;;;;;12.16;52.06;100471.72;5058369;28;45522;-60
2022/02/17 06:37:46;;;;;;;;;15.50;5.50;;;;;12.17;52.00;100481.28;5076039;28;45306;-60
2022/02/17 06:40:12;;;;;;;;;12.75;7.00;;;;;12.19;52.52;100491.63;5058105;28;45450;-60
2022/02/17 06:42:38;;;;;;;;;9.50;6.00;;;;;12.20;52.71;100500.38;5076239;28;45447;-61
2022/02/17 06:45:03;;;;;;;;;11.25;7.25;;;;;12.20;52.58;100518.81;5075627;28;51526;-61
2022/02/17 06:47:29;;;;;;;;;12.00;7.00;;;;;12.21;52.70;100509.94;5075813;28;45354;-60
2022/02/17 06:49:54;;;;;;;;;14.75;7.00;;;;;12.20;53.04;100509.09;5076164;28;45313;-61
2022/02/17 06:52:20;;;;;;;;;11.50;4.75;;;;;12.20;52.76;100511.75;5057326;28;57033;-61
2022/02/17 06:54:46;;;;;;;;;11.75;5.25;;;;;12.21;53.24;100529.19;5074966;28;46165;-60
2022/02/17 06:57:11;;;;;;;;;13.25;5.75;;;;;12.21;52.79;100523.13;5075136;28;63026;-61
2022/02/17 06:59:37;;;;;;;;;9.25;4.00;;;;;12.20;53.47;100519.63;5075986;28;45397;-60
2022/02/17 07:02:02;;;;;;;;;7.50;5.00;;;;;12.21;53.11;100526.56;5074525;28;45668;-61
2022/02/17 07:04:27;;;;;;;;;14.00;5.75;;;;;12.21;53.72;100536.28;5057423;28;50284;-61
2022/02/17 07:06:53;;;;;;;;;11.75;7.50;;;;;12.23;53.09;100521.97;5075807;28;45986;-60
2022/02/17 07:09:19;;;;;;;;;17.00;13.00;;;;;12.21;53.49;100523.94;5057944;28;45450;-60
2022/02/17 07:11:44;;;;;;;;;10.00;7.50;;;;;12.23;53.70;100539.59;5057328;28;45340;-60
2022/02/17 07:14:10;;;;;;;;;21.75;14.50;;;;;12.23;53.45;100550.16;5075605;28;45887;-60
2022/02/17 07:16:36;;;;;;;;;8.25;5.00;;;;;12.24;53.54;100549.16;5078469;28;46894;-61
2022/02/17 07:19:01;;;;;;;;;10.75;4.50;;;;;12.24;53.20;100570.25;5078689;28;45188;-60
2022/02/17 07:21:26;;;;;;;;;9.75;5.75;;;;;12.24;53.45;100565.78;5078535;28;45522;-61
2022/02/17 07:23:52;;;;;;;;;6.75;6.00;;;;;12.25;53.84;100571.91;5079140;28;45986;-60
2022/02/17 07:26:18;;;;;;;;;5.50;3.50;;;;;12.27;53.34;100562.88;5078187;28;67447;-60
2022/02/17 07:28:44;;;;;;;;;12.25;7.00;;;;;12.27;53.67;100578.66;5079317;28;45347;-60
2022/02/17 07:31:12;;;;;;;;;10.50;5.50;;;;;12.28;53.84;100571.63;5079064;28;45302;-60
2022/02/17 07:33:37;;;;;;;;;11.25;6.25;;;;;12.29;53.48;100582.00;5078104;28;46163;-60
2022/02/17 07:36:03;;;;;;;;;12.25;6.50;;;;;12.30;53.49;100599.47;5078169;28;64780;-61
2022/02/17 07:38:28;;;;;;;;;11.00;5.50;;;;;12.29;53.41;100599.63;5079094;28;45391;-61
2022/02/17 07:40:54;;;;;;;;;10.50;7.00;;;;;12.30;53.29;100611.81;5078747;28;45684;-61
2022/02/17 07:43:19;;;;;;;;;10.25;7.25;;;;;12.30;53.13;100588.91;5078206;28;64262;-61
2022/02/17 07:45:44;;;;;;;;;12.25;7.00;;;;;12.29;53.60;100605.69;5078784;28;45374;-60
2022/02/17 07:48:10;;;;;;;;;14.25;9.00;;;;;12.30;53.19;100602.09;5078260;28;57174;-60
2022/02/17 07:50:35;;;;;;;;;12.25;7.00;;;;;12.30;53.71;100606.56;5078784;28;45356;-60
2022/02/17 07:53:01;;;;;;;;;14.50;8.00;;;;;12.31;53.58;100613.47;5077221;28;45325;-60
2022/02/17 07:55:27;;;;;;;;;14.50;9.00;;;;;12.30;53.37;100627.63;5078709;28;45272;-60
2022/02/17 07:57:53;;;;;;;;;12.00;9.25;;;;;12.31;53.47;100635.38;5078716;28;45397;-60
2022/02/17 08:00:19;;;;;;;;;16.00;7.75;;;;;12.31;53.14;100627.47;5078496;28;45501;-61
2022/02/17 08:02:44;;;;;;;;;9.75;6.00;;;;;12.32;53.50;100626.50;5077934;28;58000;-61
2022/02/17 08:05:10;;;;;;;;;13.25;7.75;;;;;12.34;53.32;100628.16;5077570;28;66858;-60
2022/02/17 08:07:38;;;;;;;;;15.00;8.00;;;;;12.35;52.95;100627.19;5078685;28;45302;-60
2022/02/17 08:10:04;;;;;;;;;16.75;8.00;;;;;12.37;52.90;100633.97;5077866;28;45506;-61
2022/02/17 08:12:29;;;;;;;;;20.25;9.75;;;;;12.39;53.47;100647.84;5078190;28;45978;-61
2022/02/17 08:14:55;;;;;;;;;7.25;6.00;;;;;12.40;53.13;100644.22;5077818;28;45303;-61
2022/02/17 08:17:20;;;;;;;;;28.75;19.00;;;;;12.42;53.17;100647.56;5077857;28;45402;-61
2022/02/17 08:19:46;;;;;;;;;21.75;9.00;;;;;12.44;53.33;100639.47;5076813;28;61862;-60
2022/02/17 08:22:11;;;;;;;;;12.25;9.75;;;;;12.44;53.17;100644.75;5058553;28;68831;-60
2022/02/17 08:24:37;;;;;;;;;18.50;7.50;;;;;12.46;52.56;100642.81;5077668;28;45323;-60
2022/02/17 08:27:02;;;;;;;;;10.25;6.50;;;;;12.48;53.12;100656.66;5076399;28;66264;-60
2022/02/17 08:29:31;;;;;;;;;12.00;9.00;;;;;12.48;52.75;100664.56;5077689;28;45517;-60
2022/02/17 08:31:56;;;;;;;;;16.50;8.75;;;;;12.48;53.12;100677.75;5077372;28;47239;-61
2022/02/17 08:34:22;;;;;;;;;19.50;15.25;;;;;12.46;53.11;100693.69;5077277;28;45326;-60
2022/02/17 08:36:47;;;;;;;;;12.75;9.00;;;;;12.49;52.97;100689.94;5076480;28;65443;-60
2022/02/17 08:39:13;;;;;;;;;10.50;7.00;;;;;12.49;52.81;100684.69;5081765;27;45623;-61
2022/02/17 08:41:38;;;;;;;;;12.25;7.25;;;;;12.51;53.01;100687.16;5107929;27;45465;-60
2022/02/17 08:44:04;;;;;;;;;15.50;7.00;;;;;12.53;52.92;100693.97;5116999;27;57992;-60
2022/02/17 08:46:30;;;;;;;;;24.25;16.50;;;;;12.56;53.00;100698.09;5113223;27;45291;-60
2022/02/17 08:48:55;;;;;;;;;13.75;9.00;;;;;12.57;52.88;100703.25;5113249;27;45410;-61
2022/02/17 08:51:22;;;;;;;;;11.00;7.00;;;;;12.58;53.18;100707.53;5118766;27;49547;-61
2022/02/17 08:53:47;;;;;;;;;14.25;6.50;;;;;12.61;52.90;100714.31;5118467;27;45299;-60
2022/02/17 08:56:13;;;;;;;;;10.25;5.75;;;;;12.61;52.85;100715.16;5100747;27;45221;-60
2022/02/17 08:58:38;;;;;;;;;16.00;14.50;;;;;12.65;53.45;100706.97;5111108;27;66464;-60
2022/02/17 09:01:04;;;;;;;;;15.25;7.75;;;;;12.65;53.42;100714.88;5087474;27;45903;-60
2022/02/17 09:03:29;;;;;;;;;16.50;7.00;;;;;12.66;53.12;100716.53;5084937;27;67572;-60
2022/02/17 09:05:55;;;;;;;;;13.00;13.00;;;;;12.67;53.18;100702.38;5086965;27;63243;-60
2022/02/17 09:08:20;;;;;;;;;14.50;11.00;;;;;12.68;53.30;100711.94;5085271;27;45273;-60
2022/02/17 09:10:45;;;;;;;;;17.75;7.00;;;;;12.69;53.52;100724.16;5076552;28;69917;-61
2022/02/17 09:13:12;;;;;;;;;13.25;9.00;;;;;12.71;53.09;100719.56;5076768;28;60428;-60
2022/02/17 09:15:38;;;;;;;;;13.00;7.75;;;;;12.73;53.34;100728.13;5065679;27;45360;-60
2022/02/17 09:18:04;;;;;;;;;11.75;8.75;;;;;12.74;53.04;100724.53;5078996;27;45577;-60
2022/02/17 09:20:30;;;;;;;;;13.50;8.25;;;;;12.75;52.88;100705.09;5078976;27;46541;-61
2022/02/17 09:22:55;;;;;;;;;15.25;7.00;;;;;12.77;53.19;100703.13;5097481;27;45873;-61
2022/02/17 09:25:21;;;;;;;;;14.50;9.00;;;;;12.77;53.12;100705.78;5079500;27;45354;-60
2022/02/17 09:27:46;;;;;;;;;13.00;6.50;;;;;12.78;52.95;100717.97;5097328;27;55063;-60
2022/02/17 09:30:12;;;;;;;;;9.25;6.25;;;;;12.79;53.19;100718.81;5096421;27;70260;-61
2022/02/17 09:32:37;;;;;;;;;13.00;7.50;;;;;12.79;53.00;100718.81;5096742;27;45457;-61
2022/02/17 09:35:03;;;;;;;;;12.75;8.50;;;;;12.78;53.09;100720.63;5097608;27;45206;-60
2022/02/17 09:37:28;;;;;;;;;19.75;11.00;;;;;12.78;53.25;100736.44;5096775;27;45299;-60
2022/02/17 09:39:54;;;;;;;;;13.00;9.00;;;;;12.79;52.93;100748.66;5096842;27;46377;-61
2022/02/17 09:42:19;;;;;;;;;28.75;20.25;;;;;12.79;53.29;100743.38;5113401;27;50749;-60
2022/02/17 09:44:44;;;;;;;;;18.50;12.75;;;;;12.79;53.13;100763.66;5117093;27;69419;-61
2022/02/17 09:47:11;;;;;;;;;12.50;9.75;;;;;12.79;53.55;100758.38;5118067;27;45440;-60
2022/02/17 09:49:37;;;;;;;;;21.50;16.00;;;;;12.78;53.08;100757.53;5117839;27;45901;-61
2022/02/17 09:52:03;;;;;;;;;12.25;8.75;;;;;12.76;53.25;100764.75;5099441;27;45393;-60
2022/02/17 09:54:28;;;;;;;;;8.25;7.25;;;;;12.75;52.88;100776.28;5118112;27;45178;-60
2022/02/17 09:56:54;;;;;;;;;13.25;9.00;;;;;12.75;52.99;100774.47;5118084;27;45413;-60
2022/02/17 09:59:20;;;;;;;;;13.50;9.00;;;;;12.75;53.02;100778.91;5118116;27;46192;-60
2022/02/17 10:01:56;;;;;;;;;8.50;5.50;;;;;12.77;53.10;100779.59;5098763;27;45316;-60
2022/02/17 10:04:21;;;;;;;;;16.50;10.00;;;;;12.77;53.57;100777.81;5117952;27;45255;-61
2022/02/17 10:06:51;;;;;;;;;19.00;11.75;;;;;12.79;52.91;100785.56;5099354;27;45924;-61
2022/02/17 10:09:17;;;;;;;;;15.75;10.00;;;;;12.83;53.52;100776.38;5117772;27;46160;-60
2022/02/17 10:11:44;;;;;;;;;8.25;6.50;;;;;12.85;52.91;100789.44;5115338;27;45389;-60
2022/02/17 10:14:12;;;;;;;;;15.50;8.00;;;;;12.87;53.04;100772.50;5099189;27;45271;-61
2022/02/17 10:17:09;;;;;;;;;19.75;15.50;;;;;12.88;53.11;100792.59;5116944;27;45500;-59
2022/02/17 10:19:49;;;;;;;;;22.75;16.25;;;;;12.94;52.53;100787.72;5115723;27;45420;-61
2022/02/17 10:22:17;;;;;;;;;22.50;14.00;;;;;12.98;52.96;100797.84;5116591;27;45726;-61
2022/02/17 10:24:44;;;;;;;;;10.75;8.25;;;;;13.05;52.63;100800.75;5116966;27;45236;-60
2022/02/17 10:27:14;;;;;;;;;11.00;8.00;;;;;13.15;52.87;100800.69;5098695;27;45415;-61
2022/02/17 10:29:39;;;;;;;;;12.75;8.50;;;;;13.26;52.12;100797.84;5116240;27;46078;-61
2022/02/17 10:32:07;;;;;;;;;11.00;8.25;;;;;13.34;52.01;100794.47;5116328;27;45204;-60
2022/02/17 10:34:32;;;;;;;;;13.75;10.25;;;;;13.40;51.69;100799.16;5116537;27;45202;-61
2022/02/17 10:36:58;;;;;;;;;18.50;10.75;;;;;13.43;51.57;100806.81;5116797;27;45834;-61
2022/02/17 10:39:26;;;;;;;;;15.25;13.50;;;;;13.44;51.54;100805.84;5115270;27;74603;-61
2022/02/17 10:41:52;;;;;;;;;21.25;13.75;;;;;13.46;51.31;100813.63;5116243;27;45576;-61
2022/02/17 10:44:20;;;;;;;;;23.25;9.50;;;;;13.46;51.75;100814.44;5116691;27;45417;-61
2022/02/17 10:46:45;;;;;;;;;14.25;9.75;;;;;13.46;51.43;100814.44;5116775;27;45475;-60
2022/02/17 10:49:18;;;;;;;;;14.75;8.00;;;;;13.46;51.04;100818.91;5117273;27;45402;-60
2022/02/17 10:51:43;;;;;;;;;11.00;7.00;;;;;13.44;51.24;100820.84;5120518;27;45344;-61
2022/02/17 10:54:09;;;;;;;;;13.50;8.75;;;;;13.43;51.35;100825.28;5101868;27;45308;-60
2022/02/17 10:56:35;;;;;;;;;17.00;12.25;;;;;13.44;50.94;100834.06;5120741;27;45210;-61
2022/02/17 10:59:05;;;;;;;;;19.75;11.00;;;;;13.47;51.45;100841.69;5119506;27;46257;-61
2022/02/17 11:01:30;;;;;;;;;21.25;19.00;;;;;13.47;51.58;100857.53;5120434;27;45381;-61
2022/02/17 11:03:56;;;;;;;;;10.75;6.50;;;;;13.49;51.08;100832.63;5120049;27;45345;-60
2022/02/17 11:06:21;;;;;;;;;12.50;6.75;;;;;13.47;50.97;100839.84;5120276;27;47986;-61
2022/02/17 11:08:49;;;;;;;;;12.25;6.75;;;;;13.49;50.71;100840.53;5119117;27;45792;-61
2022/02/17 11:11:15;;;;;;;;;13.25;9.00;;;;;13.47;51.04;100853.06;5120187;27;45800;-60
2022/02/17 11:13:44;;;;;;;;;10.75;5.00;;;;;13.46;51.29;100854.03;5120307;27;45341;-60
2022/02/17 11:16:10;;;;;;;;;11.00;7.50;;;;;13.52;50.79;100851.78;5120290;27;45510;-60
2022/02/17 11:18:35;;;;;;;;;13.75;7.50;;;;;13.59;50.95;100834.38;5120139;27;45824;-61